Portada
METAR-TAF:

METAR-TAF

Aeropuertos :

Rota, España

Base Naval de Rota

latitud: 36-39N, longitud: 006-21W, altitud: 26 m

Observación

El informe se hizo hace 1 hora y 3 minutos, a las 02:00 UTC
Viento 3 kt del este
Temperatura 8°C
Humedad 100%
Presión 1021 hPa
Visibilidad: 7000 m

METAR: LERT 180200Z 09003KT 7000 NSC 08/08 Q1021 TEMPO 3000 BR BKN008

Hora: 04:03 (03:03 UTC)

Pronóstico

El informe se hizo hace 1 hora y 3 minutos, a las 02:00 UTC
Pronóstico válido del 18 a las 03 UTC al 18 a las 12 UTC
Viento 3 kt del este
Visibilidad 10 km o más
sin nubes por debajo de 1500 m y sin presencia de cumulonimbus.
Temporalmente
del 18 a las 03 UTC al 18 a las 10 UTC
Visibilidad: 3000 m
Cielo nuboso a una altura de 800 ft
neblina
Probabilidad 30% :
Temporalmente
del 18 a las 03 UTC al 18 a las 09 UTC
Visibilidad: 0500 m
a una altura de 100 ft
niebla

TAF: LERT 180200Z 1803/1812 08003KT CAVOK TEMPO 1803/1810 3000 BR BKN008 PROB30 TEMPO 1803/1809 0500 FG VV001

Observaciones y pronósticos meteorológicos de más de 4000 aeropuertos (mensajes METAR y TAF).

Los puntos amarillos y rojos representan las estaciones disponibles.

Ponga el ratón en el punto deseado para ver el nombre de la estación.

Haga clic para ver las observaciones y los pronósticos meteorológicos.

Para cambiar el mapa : haga clic en los botones verdes con una cruz de color negro para hacer un zoom, en el botón verde con un guión para alejar o en las flechas verdes para mapas adyacentes.


METAR-TAF: